createdAt,value
2023-05-20T00:01:18.832Z,13.06
2023-05-20T00:03:47.004Z,12.92
2023-05-20T00:06:13.750Z,13.00
2023-05-20T00:08:41.488Z,12.99
2023-05-20T00:11:07.998Z,12.97
2023-05-20T00:13:36.288Z,12.97
2023-05-20T00:16:03.030Z,12.85
2023-05-20T00:18:29.641Z,12.92
2023-05-20T00:20:56.289Z,12.93
2023-05-20T00:23:23.124Z,12.86
2023-05-20T00:25:50.645Z,12.86
2023-05-20T00:28:20.131Z,12.89
2023-05-20T00:30:46.827Z,12.80
2023-05-20T00:33:13.825Z,12.76
2023-05-20T00:35:40.806Z,12.76
2023-05-20T00:38:07.461Z,12.72
2023-05-20T00:40:34.526Z,12.73
2023-05-20T00:43:01.524Z,12.79
2023-05-20T00:45:28.891Z,12.77
2023-05-20T00:47:59.672Z,12.70
2023-05-20T00:50:26.344Z,12.77
2023-05-20T00:52:55.424Z,12.75
2023-05-20T00:55:23.130Z,12.74
2023-05-20T00:57:50.380Z,12.79
2023-05-20T01:00:17.068Z,12.71
2023-05-20T01:02:43.885Z,12.72
2023-05-20T01:05:13.728Z,12.70
2023-05-20T01:07:41.227Z,12.68
2023-05-20T01:10:09.667Z,12.75
2023-05-20T01:12:42.921Z,12.74
2023-05-20T01:15:12.306Z,12.73
2023-05-20T01:17:51.306Z,12.72
2023-05-20T01:20:18.975Z,12.65
2023-05-20T01:22:55.689Z,12.69
2023-05-20T01:25:22.804Z,12.71
2023-05-20T01:27:51.121Z,12.78
2023-05-20T01:30:18.243Z,12.74
2023-05-20T01:32:53.109Z,12.72
2023-05-20T01:35:21.837Z,12.74
2023-05-20T01:37:50.934Z,12.81
2023-05-20T01:40:20.152Z,12.75
2023-05-20T01:42:53.092Z,12.89
2023-05-20T01:45:20.646Z,12.90
2023-05-20T01:47:47.732Z,12.77
2023-05-20T01:50:14.435Z,12.79
2023-05-20T01:52:41.210Z,12.69
2023-05-20T01:55:08.051Z,12.76
2023-05-20T01:57:34.651Z,12.64
2023-05-20T02:00:01.955Z,12.67
2023-05-20T02:02:29.034Z,12.70
2023-05-20T02:04:55.784Z,12.65
2023-05-20T02:07:22.350Z,12.65
2023-05-20T02:09:49.031Z,12.63
2023-05-20T02:12:19.029Z,12.63
2023-05-20T02:14:50.454Z,12.67
2023-05-20T02:17:17.906Z,12.70
2023-05-20T02:19:45.490Z,12.68
2023-05-20T02:22:12.146Z,12.54
2023-05-20T02:24:40.800Z,12.59
2023-05-20T02:27:07.702Z,12.56
2023-05-20T02:29:34.668Z,12.50
2023-05-20T02:32:01.533Z,12.56
2023-05-20T02:34:30.392Z,12.53
2023-05-20T02:36:57.151Z,12.60
2023-05-20T02:39:23.765Z,12.50
2023-05-20T02:41:50.358Z,12.48
2023-05-20T02:44:16.949Z,12.49
2023-05-20T02:46:43.662Z,12.36
2023-05-20T02:49:10.496Z,12.36
2023-05-20T02:51:37.015Z,12.28
2023-05-20T02:54:04.164Z,12.34
2023-05-20T02:56:32.709Z,12.47
2023-05-20T02:58:59.371Z,12.37
2023-05-20T03:01:26.190Z,12.31
2023-05-20T03:03:53.028Z,12.29
2023-05-20T03:06:20.011Z,12.28
2023-05-20T03:08:47.168Z,12.29
2023-05-20T03:11:13.743Z,12.24
2023-05-20T03:13:40.491Z,12.28
2023-05-20T03:16:07.208Z,12.34
2023-05-20T03:18:37.473Z,12.19
2023-05-20T03:21:04.549Z,12.18
2023-05-20T03:23:31.316Z,12.20
2023-05-20T03:25:58.035Z,12.23
2023-05-20T03:28:24.724Z,12.26
2023-05-20T03:30:51.925Z,12.35
2023-05-20T03:33:19.450Z,12.16
2023-05-20T03:35:46.276Z,12.19
2023-05-20T03:38:13.095Z,12.10
2023-05-20T03:40:40.326Z,12.14
2023-05-20T03:43:07.005Z,12.21
2023-05-20T03:45:34.767Z,12.23
2023-05-20T03:48:03.554Z,12.14
2023-05-20T03:50:31.336Z,11.99
2023-05-20T03:52:57.918Z,12.07
2023-05-20T03:55:25.051Z,12.13
2023-05-20T03:57:54.551Z,12.15
2023-05-20T04:00:21.961Z,12.17
2023-05-20T04:02:49.753Z,12.22
2023-05-20T04:05:17.863Z,12.31
2023-05-20T04:07:44.488Z,12.31
2023-05-20T04:10:11.818Z,12.17
2023-05-20T04:12:38.963Z,12.20
2023-05-20T04:15:06.288Z,12.20
2023-05-20T04:17:33.177Z,12.31
2023-05-20T04:20:00.201Z,12.23
2023-05-20T04:22:27.727Z,12.18
2023-05-20T04:24:54.784Z,12.21
2023-05-20T04:27:21.873Z,12.10
2023-05-20T04:29:48.596Z,11.95
2023-05-20T04:32:19.061Z,12.11
2023-05-20T04:34:49.232Z,12.17
2023-05-20T04:37:16.372Z,12.08
2023-05-20T04:39:43.748Z,11.99
2023-05-20T04:42:11.527Z,11.95
2023-05-20T04:44:39.197Z,11.87
2023-05-20T04:47:09.394Z,12.04
2023-05-20T04:49:36.376Z,12.03
2023-05-20T04:52:03.446Z,11.91
2023-05-20T04:54:32.939Z,12.00
2023-05-20T04:56:59.578Z,12.05
2023-05-20T04:59:26.304Z,11.99
2023-05-20T05:01:52.964Z,11.91
2023-05-20T05:04:19.922Z,11.93
2023-05-20T05:06:50.002Z,11.93
2023-05-20T05:09:17.077Z,11.81
2023-05-20T05:11:43.899Z,11.88
2023-05-20T05:14:10.729Z,11.94
2023-05-20T05:16:37.425Z,11.86
2023-05-20T05:19:04.153Z,11.82
2023-05-20T05:21:31.659Z,11.92
2023-05-20T05:23:58.557Z,11.84
2023-05-20T05:26:27.030Z,11.95
2023-05-20T05:28:56.668Z,11.77
2023-05-20T05:31:23.313Z,11.80
2023-05-20T05:33:50.045Z,11.74
2023-05-20T05:36:17.487Z,11.82
2023-05-20T05:38:44.671Z,11.77
2023-05-20T05:41:11.271Z,11.76
2023-05-20T05:43:38.409Z,11.75
2023-05-20T05:46:06.840Z,11.65
2023-05-20T05:48:33.999Z,11.76
2023-05-20T05:51:00.676Z,11.65
2023-05-20T05:53:29.366Z,11.80
2023-05-20T05:55:59.023Z,11.79
2023-05-20T05:58:25.664Z,11.69
2023-05-20T06:00:53.317Z,11.73
2023-05-20T06:03:20.265Z,11.70
2023-05-20T06:05:47.866Z,11.75
2023-05-20T06:08:14.764Z,11.66
2023-05-20T06:10:41.500Z,11.84
2023-05-20T06:13:08.199Z,11.57
2023-05-20T06:15:36.810Z,11.62
2023-05-20T06:18:03.744Z,11.50
2023-05-20T06:20:30.471Z,11.59
2023-05-20T06:22:57.642Z,11.62
2023-05-20T06:25:25.059Z,11.64
2023-05-20T06:27:51.829Z,11.66
2023-05-20T06:30:19.235Z,11.53
2023-05-20T06:32:46.184Z,11.42
2023-05-20T06:35:12.888Z,11.55
2023-05-20T06:37:39.623Z,11.45
2023-05-20T06:40:07.141Z,11.56
2023-05-20T06:42:36.112Z,11.55
2023-05-20T06:45:02.699Z,11.50
2023-05-20T06:47:29.313Z,11.63
2023-05-20T06:49:56.290Z,11.43
2023-05-20T06:52:23.741Z,11.72
2023-05-20T06:54:51.470Z,11.84
2023-05-20T06:57:19.525Z,11.86
2023-05-20T06:59:46.584Z,11.71
2023-05-20T07:02:13.361Z,11.77
2023-05-20T07:04:40.123Z,11.58
2023-05-20T07:07:07.135Z,11.62
2023-05-20T07:09:33.687Z,11.63
2023-05-20T07:12:00.284Z,11.58
2023-05-20T07:14:26.938Z,11.51
2023-05-20T07:16:53.756Z,11.70
2023-05-20T07:19:20.941Z,11.89
2023-05-20T07:21:47.531Z,11.71
2023-05-20T07:24:14.096Z,11.83
2023-05-20T07:26:42.050Z,11.95
2023-05-20T07:29:10.369Z,12.01
2023-05-20T07:31:37.003Z,11.90
2023-05-20T07:34:03.798Z,11.76
2023-05-20T07:36:30.908Z,11.89
2023-05-20T07:39:03.898Z,11.86
2023-05-20T07:41:31.844Z,11.78
2023-05-20T07:43:58.592Z,11.84
2023-05-20T07:46:25.536Z,12.00
2023-05-20T07:48:52.413Z,12.05
2023-05-20T07:51:19.330Z,11.95
2023-05-20T07:53:45.887Z,12.07
2023-05-20T07:56:12.711Z,11.91
2023-05-20T07:58:42.145Z,12.06
2023-05-20T08:01:09.660Z,12.08
2023-05-20T08:03:36.978Z,12.18
2023-05-20T08:06:04.074Z,12.30
2023-05-20T08:08:31.174Z,12.26
2023-05-20T08:10:57.907Z,12.26
2023-05-20T08:13:25.173Z,12.28
2023-05-20T08:15:55.643Z,12.40
2023-05-20T08:18:23.290Z,12.25
2023-05-20T08:20:52.349Z,12.29
2023-05-20T08:23:19.302Z,12.30
2023-05-20T08:25:48.958Z,12.30
2023-05-20T08:28:15.601Z,12.41
2023-05-20T08:30:42.191Z,12.20
2023-05-20T08:33:09.280Z,12.46
2023-05-20T08:35:36.506Z,12.53
2023-05-20T08:38:03.149Z,12.67
2023-05-20T08:40:29.949Z,12.78
2023-05-20T08:43:00.167Z,12.85
2023-05-20T08:45:28.779Z,12.82
2023-05-20T08:47:56.443Z,12.72
2023-05-20T08:50:23.234Z,12.78
2023-05-20T08:52:49.790Z,12.92
2023-05-20T08:55:36.801Z,12.95
2023-05-20T08:58:04.747Z,12.90
2023-05-20T09:00:32.227Z,12.83
2023-05-20T09:03:01.141Z,12.93
2023-05-20T09:05:28.582Z,13.22
2023-05-20T09:08:08.900Z,12.96
2023-05-20T09:10:36.623Z,13.11
2023-05-20T09:13:05.169Z,13.15
2023-05-20T09:15:33.222Z,13.24
2023-05-20T09:18:02.455Z,13.09
2023-05-20T09:20:30.099Z,13.12
2023-05-20T09:23:05.340Z,13.15
2023-05-20T09:25:35.587Z,13.24
2023-05-20T09:28:09.330Z,13.18
2023-05-20T09:30:36.068Z,13.16
2023-05-20T09:33:06.068Z,13.40
2023-05-20T09:35:39.432Z,13.26
2023-05-20T09:38:10.087Z,13.49
2023-05-20T09:40:40.657Z,13.49
2023-05-20T09:43:11.075Z,13.61
2023-05-20T09:45:38.767Z,13.52
2023-05-20T09:48:09.220Z,13.67
2023-05-20T09:50:36.913Z,13.68
2023-05-20T09:53:22.784Z,13.69
2023-05-20T09:55:51.139Z,13.64
2023-05-20T09:58:20.304Z,13.56
2023-05-20T10:00:46.988Z,13.66
2023-05-20T10:03:14.068Z,13.86
2023-05-20T10:06:01.722Z,13.85
2023-05-20T10:08:43.278Z,13.91
2023-05-20T10:11:28.787Z,13.80
2023-05-20T10:14:32.596Z,13.70
2023-05-20T10:17:25.871Z,13.73
2023-05-20T10:19:59.219Z,13.75
2023-05-20T10:22:30.385Z,13.74
2023-05-20T10:25:07.229Z,13.65
2023-05-20T10:27:45.778Z,13.79
2023-05-20T10:30:17.024Z,13.99
2023-05-20T10:32:56.735Z,13.93
2023-05-20T10:35:28.774Z,14.08
2023-05-20T10:38:08.018Z,14.10
2023-05-20T10:40:34.886Z,13.98
2023-05-20T10:43:10.467Z,13.82
2023-05-20T10:45:48.198Z,13.96
2023-05-20T10:48:33.698Z,14.27
2023-05-20T10:51:04.952Z,14.29
2023-05-20T10:53:45.961Z,13.94
2023-05-20T10:56:24.377Z,14.00
2023-05-20T10:58:52.523Z,14.11
2023-05-20T11:01:25.515Z,14.05
2023-05-20T11:03:57.580Z,13.93
2023-05-20T11:06:28.885Z,13.99
2023-05-20T11:08:56.352Z,14.00
2023-05-20T11:11:23.016Z,14.04
2023-05-20T11:13:53.186Z,14.15
2023-05-20T11:16:31.061Z,14.12
2023-05-20T11:18:57.819Z,14.30
2023-05-20T11:21:24.573Z,14.31
2023-05-20T11:23:52.026Z,14.36
2023-05-20T11:26:18.712Z,14.30
2023-05-20T11:28:46.004Z,14.39
2023-05-20T11:31:12.861Z,14.43
2023-05-20T11:33:43.716Z,14.49
2023-05-20T11:36:26.377Z,14.76
2023-05-20T11:38:54.362Z,14.85
2023-05-20T11:41:28.052Z,15.06
2023-05-20T11:44:01.410Z,15.14
2023-05-20T11:46:31.505Z,14.84
2023-05-20T11:48:58.256Z,15.11
2023-05-20T11:51:27.660Z,15.07
2023-05-20T11:54:00.209Z,14.95
2023-05-20T11:56:30.300Z,14.86
2023-05-20T11:59:00.959Z,15.09
2023-05-20T12:01:37.902Z,15.02
2023-05-20T12:04:05.748Z,15.08
2023-05-20T12:06:32.780Z,15.09
2023-05-20T12:09:06.711Z,15.02
2023-05-20T12:11:37.964Z,14.95
2023-05-20T12:14:07.240Z,15.06
2023-05-20T12:16:36.221Z,15.03
2023-05-20T12:19:03.844Z,15.18
2023-05-20T12:21:31.527Z,15.03
2023-05-20T12:23:59.762Z,15.15
2023-05-20T12:26:30.048Z,15.29
2023-05-20T12:28:57.547Z,15.12
2023-05-20T12:31:25.918Z,15.19
2023-05-20T12:33:52.760Z,15.29
2023-05-20T12:36:19.872Z,15.24
2023-05-20T12:38:46.831Z,15.43
2023-05-20T12:41:13.445Z,15.39
2023-05-20T12:43:45.320Z,15.32
2023-05-20T12:46:12.048Z,15.38
2023-05-20T12:48:39.972Z,15.49
2023-05-20T12:51:07.727Z,15.56
2023-05-20T12:53:34.378Z,15.71
2023-05-20T12:56:01.201Z,15.90
2023-05-20T12:58:27.911Z,16.01
2023-05-20T13:00:54.610Z,16.03
2023-05-20T13:03:21.327Z,15.95
2023-05-20T13:05:48.218Z,15.90
2023-05-20T13:08:15.033Z,15.72
2023-05-20T13:10:41.670Z,15.88
2023-05-20T13:13:08.184Z,15.80
2023-05-20T13:15:34.833Z,15.76
2023-05-20T13:18:07.221Z,15.89
2023-05-20T13:20:34.044Z,15.78
2023-05-20T13:23:01.438Z,15.83
2023-05-20T13:25:28.234Z,15.99
2023-05-20T13:27:55.198Z,16.26
2023-05-20T13:30:21.848Z,15.96
2023-05-20T13:32:48.687Z,16.04
2023-05-20T13:35:18.894Z,15.93
2023-05-20T13:37:45.507Z,16.07
2023-05-20T13:40:12.600Z,16.10
2023-05-20T13:42:39.606Z,16.05
2023-05-20T13:45:06.949Z,16.06
2023-05-20T13:47:33.998Z,16.13
2023-05-20T13:50:04.239Z,16.13
2023-05-20T13:52:30.807Z,16.28
2023-05-20T13:54:57.292Z,16.10
2023-05-20T13:57:23.866Z,16.10
2023-05-20T13:59:50.430Z,16.02
2023-05-20T14:02:17.664Z,16.30
2023-05-20T14:04:46.914Z,16.34
2023-05-20T14:07:13.595Z,16.24
2023-05-20T14:09:40.123Z,16.27
2023-05-20T14:12:06.970Z,16.06
2023-05-20T14:14:33.578Z,16.12
2023-05-20T14:17:06.235Z,16.10
2023-05-20T14:19:32.978Z,16.06
2023-05-20T14:22:01.167Z,16.19
2023-05-20T14:24:27.764Z,16.10
2023-05-20T14:26:54.310Z,16.13
2023-05-20T14:29:21.142Z,16.26
2023-05-20T14:31:47.732Z,16.44
2023-05-20T14:34:14.647Z,16.24
2023-05-20T14:36:41.167Z,16.38
2023-05-20T14:39:07.708Z,16.07
2023-05-20T14:41:34.364Z,16.63
2023-05-20T14:44:00.863Z,16.56
2023-05-20T14:46:27.642Z,16.95
2023-05-20T14:48:54.315Z,16.87
2023-05-20T14:51:20.904Z,16.88
2023-05-20T14:53:47.591Z,16.86
2023-05-20T14:56:14.919Z,17.05
2023-05-20T14:58:42.097Z,16.78
2023-05-20T15:01:08.716Z,17.02
2023-05-20T15:03:35.219Z,17.23
2023-05-20T15:06:01.784Z,17.00
2023-05-20T15:08:28.266Z,16.98
2023-05-20T15:10:54.779Z,17.10
2023-05-20T15:13:21.216Z,17.35
2023-05-20T15:15:47.817Z,17.41
2023-05-20T15:18:14.414Z,17.14
2023-05-20T15:20:42.380Z,17.33
2023-05-20T15:23:10.623Z,17.56
2023-05-20T15:25:37.296Z,17.46
2023-05-20T15:28:04.060Z,17.66
2023-05-20T15:30:30.568Z,17.59
2023-05-20T15:32:57.237Z,17.74
2023-05-20T15:35:23.895Z,17.83
2023-05-20T15:37:51.042Z,17.98
2023-05-20T15:40:17.958Z,18.17
2023-05-20T15:42:47.926Z,18.28
2023-05-20T15:45:14.498Z,18.31
2023-05-20T15:47:41.182Z,18.54
2023-05-20T15:50:08.680Z,18.29
2023-05-20T15:52:35.443Z,18.25
2023-05-20T15:55:01.980Z,18.30
2023-05-20T15:57:29.306Z,18.39
2023-05-20T15:59:56.910Z,18.20
2023-05-20T16:02:24.959Z,18.22
2023-05-20T16:04:52.331Z,18.33
2023-05-20T16:07:19.030Z,18.32
2023-05-20T16:09:45.477Z,18.25
2023-05-20T16:12:12.594Z,18.32
2023-05-20T16:14:39.746Z,18.59
2023-05-20T16:17:06.212Z,18.75
2023-05-20T16:19:32.933Z,18.92
2023-05-20T16:21:59.554Z,19.02
2023-05-20T16:24:26.033Z,18.96
2023-05-20T16:26:53.617Z,18.74
2023-05-20T16:29:20.984Z,19.11
2023-05-20T16:31:47.604Z,18.88
2023-05-20T16:34:14.909Z,18.68
2023-05-20T16:36:41.571Z,18.71
2023-05-20T16:39:08.103Z,18.82
2023-05-20T16:41:34.623Z,18.58
2023-05-20T16:44:01.368Z,18.57
2023-05-20T16:46:27.822Z,18.45
2023-05-20T16:48:54.285Z,18.37
2023-05-20T16:51:20.840Z,18.38
2023-05-20T16:53:47.326Z,18.54
2023-05-20T16:56:13.825Z,18.56
2023-05-20T16:58:40.495Z,18.46
2023-05-20T17:01:08.321Z,18.60
2023-05-20T17:03:35.864Z,18.43
2023-05-20T17:06:02.682Z,18.59
2023-05-20T17:08:31.195Z,18.54
2023-05-20T17:10:59.237Z,18.72
2023-05-20T17:13:25.687Z,18.97
2023-05-20T17:15:52.169Z,18.76
2023-05-20T17:18:18.644Z,18.86
2023-05-20T17:20:45.086Z,18.98
2023-05-20T17:23:11.622Z,19.01
2023-05-20T17:25:38.164Z,18.85
2023-05-20T17:28:04.732Z,18.80
2023-05-20T17:30:31.281Z,18.85
2023-05-20T17:32:57.966Z,18.74
2023-05-20T17:35:28.093Z,18.66
2023-05-20T17:37:55.131Z,18.73
2023-05-20T17:40:21.884Z,18.72
2023-05-20T17:42:48.465Z,18.72
2023-05-20T17:45:15.238Z,18.65
2023-05-20T17:47:43.609Z,18.53
2023-05-20T17:50:11.166Z,18.62
2023-05-20T17:52:37.790Z,18.58
2023-05-20T17:55:04.935Z,18.57
2023-05-20T17:57:31.679Z,18.60
2023-05-20T17:59:58.123Z,18.53
2023-05-20T18:02:24.637Z,18.47
2023-05-20T18:04:51.163Z,18.48
2023-05-20T18:07:17.848Z,18.39
2023-05-20T18:09:44.759Z,18.39
2023-05-20T18:12:11.217Z,18.39
2023-05-20T18:14:39.231Z,18.37
2023-05-20T18:17:05.895Z,18.30
2023-05-20T18:19:33.806Z,18.25
2023-05-20T18:22:01.086Z,18.27
2023-05-20T18:24:27.546Z,18.24
2023-05-20T18:26:54.038Z,18.29
2023-05-20T18:29:23.137Z,18.17
2023-05-20T18:31:49.591Z,18.13
2023-05-20T18:34:16.221Z,18.11
2023-05-20T18:36:42.708Z,18.15
2023-05-20T18:39:10.132Z,18.05
2023-05-20T18:41:46.499Z,18.06
2023-05-20T18:44:14.929Z,18.07
2023-05-20T18:46:42.262Z,18.09
2023-05-20T18:49:10.643Z,18.00
2023-05-20T18:51:38.332Z,17.97
2023-05-20T18:54:04.932Z,17.94
2023-05-20T18:56:32.657Z,17.88
2023-05-20T18:58:59.828Z,17.86
2023-05-20T19:01:27.163Z,17.89
2023-05-20T19:03:53.655Z,17.85
2023-05-20T19:06:20.364Z,17.82
2023-05-20T19:08:50.980Z,17.73
2023-05-20T19:11:17.496Z,17.72
2023-05-20T19:13:43.986Z,17.87
2023-05-20T19:16:10.567Z,17.68
2023-05-20T19:18:37.173Z,17.72
2023-05-20T19:21:03.778Z,17.64
2023-05-20T19:23:30.590Z,17.68
2023-05-20T19:25:57.160Z,17.64
2023-05-20T19:28:23.642Z,17.57
2023-05-20T19:30:50.200Z,17.60
2023-05-20T19:33:16.931Z,17.58
2023-05-20T19:35:43.824Z,17.57
2023-05-20T19:38:10.706Z,17.53
2023-05-20T19:40:37.178Z,17.54
2023-05-20T19:43:03.919Z,17.52
2023-05-20T19:45:30.624Z,17.48
2023-05-20T19:47:59.344Z,17.50
2023-05-20T19:50:25.870Z,17.47
2023-05-20T19:52:52.646Z,17.38
2023-05-20T19:55:19.119Z,17.39
2023-05-20T19:57:48.014Z,17.42
2023-05-20T20:00:15.470Z,17.37
2023-05-20T20:02:42.032Z,17.27
2023-05-20T20:05:08.831Z,17.28
2023-05-20T20:07:35.474Z,17.27
2023-05-20T20:10:02.244Z,17.28
2023-05-20T20:12:28.818Z,17.30
2023-05-20T20:14:56.266Z,17.21
2023-05-20T20:17:23.743Z,17.12
2023-05-20T20:19:53.050Z,17.16
2023-05-20T20:22:19.723Z,17.01
2023-05-20T20:24:46.234Z,16.97
2023-05-20T20:27:15.334Z,16.98
2023-05-20T20:29:42.136Z,16.97
2023-05-20T20:32:08.727Z,16.95
2023-05-20T20:34:38.630Z,16.93
2023-05-20T20:37:05.385Z,16.89
2023-05-20T20:39:32.347Z,16.82
2023-05-20T20:42:00.450Z,16.70
2023-05-20T20:44:29.098Z,16.65
2023-05-20T20:46:58.319Z,16.58
2023-05-20T20:49:26.879Z,16.56
2023-05-20T20:51:54.821Z,16.53
2023-05-20T20:54:21.559Z,16.50
2023-05-20T20:56:49.981Z,16.48
2023-05-20T20:59:16.707Z,16.45
2023-05-20T21:01:44.662Z,16.44
2023-05-20T21:04:13.841Z,16.35
2023-05-20T21:06:46.138Z,16.39
2023-05-20T21:09:14.270Z,16.36
2023-05-20T21:11:46.008Z,16.29
2023-05-20T21:14:13.536Z,16.19
2023-05-20T21:16:40.502Z,16.24
2023-05-20T21:19:07.260Z,16.23
2023-05-20T21:21:33.989Z,16.20
2023-05-20T21:24:00.471Z,16.20
2023-05-20T21:26:27.020Z,16.11
2023-05-20T21:28:53.774Z,16.07
2023-05-20T21:31:20.600Z,16.09
2023-05-20T21:33:47.110Z,16.04
2023-05-20T21:36:15.621Z,16.08
2023-05-20T21:38:42.212Z,16.07
2023-05-20T21:41:08.856Z,16.10
2023-05-20T21:43:37.028Z,16.09
2023-05-20T21:46:03.578Z,16.05
2023-05-20T21:48:30.127Z,16.04
2023-05-20T21:50:56.653Z,16.08
2023-05-20T21:53:23.113Z,15.97
2023-05-20T21:55:49.808Z,16.03
2023-05-20T21:58:16.585Z,15.99
2023-05-20T22:00:44.522Z,15.94
2023-05-20T22:03:12.967Z,15.97
2023-05-20T22:05:39.687Z,15.84
2023-05-20T22:08:06.257Z,15.88
2023-05-20T22:10:36.622Z,15.82
2023-05-20T22:13:03.425Z,15.78
2023-05-20T22:15:31.509Z,15.77
2023-05-20T22:17:58.851Z,15.77
2023-05-20T22:20:25.785Z,15.79
2023-05-20T22:22:52.224Z,15.75
2023-05-20T22:25:18.771Z,15.69
2023-05-20T22:27:45.584Z,15.66
2023-05-20T22:30:12.887Z,15.67
2023-05-20T22:32:40.432Z,15.58
2023-05-20T22:35:07.448Z,15.55
2023-05-20T22:37:34.045Z,15.56
2023-05-20T22:40:00.956Z,15.57
2023-05-20T22:42:29.690Z,15.57
2023-05-20T22:44:56.655Z,15.51
2023-05-20T22:47:23.638Z,15.48
2023-05-20T22:49:50.841Z,15.46
2023-05-20T22:52:18.730Z,15.40
2023-05-20T22:54:45.393Z,15.33
2023-05-20T22:57:12.124Z,15.24
2023-05-20T22:59:39.114Z,15.39
2023-05-20T23:02:06.318Z,15.26
2023-05-20T23:04:33.039Z,15.36
2023-05-20T23:07:00.061Z,15.32
2023-05-20T23:09:27.570Z,15.29
2023-05-20T23:11:54.151Z,15.21
2023-05-20T23:14:21.198Z,15.10
2023-05-20T23:16:47.692Z,15.18
2023-05-20T23:19:14.674Z,15.12
2023-05-20T23:21:41.162Z,15.08
2023-05-20T23:24:07.703Z,15.05
2023-05-20T23:26:34.539Z,14.98
2023-05-20T23:29:01.548Z,14.92
2023-05-20T23:31:30.096Z,14.99
2023-05-20T23:33:58.580Z,14.95
2023-05-20T23:36:25.741Z,14.91
2023-05-20T23:38:55.107Z,14.98
2023-05-20T23:41:22.417Z,14.85
2023-05-20T23:43:49.166Z,14.91
2023-05-20T23:46:15.839Z,14.88
2023-05-20T23:48:44.801Z,14.89
2023-05-20T23:51:13.584Z,14.74
2023-05-20T23:53:40.884Z,14.81
2023-05-20T23:56:07.864Z,14.79
2023-05-20T23:58:35.216Z,14.77
